Impacts METAR Board
IDs:

KSAT - San Antonio Intl, TX, US

Updated at: 0500 UTC 19 Aug 2019
Potential Impact None Slight Moderate High
Time 18/17Z 18/18Z 18/19Z 18/20Z 18/21Z 18/22Z 18/23Z 19/00Z 19/01Z 19/02Z 19/03Z 19/04Z 19/05Z
Temp90 91 94 96 99 100 99 98 94 91 87 84 82
Dewpt71 71 70 69 67 67 66 66 70 70 71 71 71
Altim29.93 29.92 29.89 29.88 29.85 29.84 29.83 29.82 29.83 29.86 29.89 29.93 29.96
VIS10 10 10 10 10 10 10 10 10 10 10 10 10
CIG36 -- -- -- -- -- -- -- -- -- -- -- --
CoverBKNSCTFEWFEWFEWFEWFEWFEWFEWFEWFEWFEWFEW
FltCatVFRVFRVFRVFRVFRVFRVFRVFRVFRVFRVFRVFRVFR
WX--------------------------
WDir160190210190160160140140130130130150140
WSpd10 13 11 8 10 14 11 14 16 17 19 14 9
WGst-- 18 -- 16 19 18 -- -- -- -- 24 -- --
Raw hourly METARs
KSAT 181651Z 16010KT 10SM BKN036 32/22 A2993 RMK AO2 SLP115 T03220217
KSAT 181751Z 19013G18KT 10SM SCT039 33/22 A2992 RMK AO2 SLP110 T03280217 10339 20267 58004
KSAT 181851Z 21011KT 10SM FEW044 34/21 A2989 RMK AO2 SLP102 T03440211
KSAT 181951Z 19008G16KT 10SM FEW050 36/21 A2988 RMK AO2 SLP096 T03560206
KSAT 182051Z 16010G19KT 130V190 10SM FEW060 37/19 A2985 RMK AO2 SLP088 T03720194 57022
KSAT 182151Z 16014G18KT 10SM FEW070 38/19 A2984 RMK AO2 SLP083 T03780194
KSAT 182251Z 14011KT 10SM FEW070 37/19 A2983 RMK AO2 SLP079 T03720189
KSAT 182351Z 14014KT 10SM FEW070 37/19 A2982 RMK AO2 SLP077 T03670189 10378 20328 56010
KSAT 190051Z 13016KT 10SM FEW060 34/21 A2983 RMK AO2 SLP081 T03440211
KSAT 190151Z 13017KT 10SM FEW250 33/21 A2986 RMK AO2 PK WND 13026/0119 SLP090 T03280211
KSAT 190251Z 13019G24KT 10SM FEW250 31/22 A2989 RMK AO2 PK WND 12027/0240 SLP103 T03060217 53024
KSAT 190351Z 15014KT 10SM FEW250 29/22 A2993 RMK AO2 SLP117 T02890217
KSAT 190451Z 14009KT 10SM FEW250 28/22 A2996 RMK AO2 SLP125 T02780217



Page loaded:  05:44 UTC  |   10:44 PM Pacific  |   11:44 PM Mountain  |   12:44 AM Central  |   01:44 AM Eastern

 

ADVISORIES

FORECASTS

FORECASTS

OBSERVATIONS

USER TOOLS

ABOUT US